CWEU

Eureka Airport

Eureka, Canada
METAR CWEU 241100Z 00000KT 15SM -SN FEW010 SCT053 OVC081 M06/M07 A2966 RMK SF1SC4AC4 SF TR SLP045
Observed Flight Rules
Sep-24 @ 11:00 UTC (33 minutes ago) Visual Flight Rules
Visibility Clouds Conditions
15 miles
  • Few at 1,000' AGL
  • Scattered at 5,300' AGL
  • Overcast at 8,100' AGL
  • Light Snow
Temperatures Readings
Current -6°C / 21°F
Dewpoint -7°C / 19°F
Humidity 93%
Altimeter 29.66" Hg
Pressure 1004.5 hPa
Elevation 10
METAR CWEU 241100Z 00000KT 15SM -SN FEW010 SCT053 OVC081 M06/M07 A2966 RMK SF1SC4AC4 SF TR SLP045
Observed Flight Rules
Sep-24 @ 11:00 UTC
(33 minutes ago)
VFR
Clouds
  • Few at 1,000' AGL
  • Scattered at 5,300' AGL
  • Overcast at 8,100' AGL
Conditions
  • Light Snow
Temperature Dewpoint
-6°C / 21°F -7°C / 19°F
Humidity Altimeter Pressure
93% 29.66" Hg 1004.5 hPa